Time;durP1;ratioP1;P1;durP2;ratioP2;P2;SDS_P1;SDS_P2;PMS_P1;PMS_P2;Temp;Humidity;BMP_temperature;BMP_pressure;BME280_temperature;BME280_humidity;BME280_pressure;Samples;Min_cycle;Max_cycle;Signal;HPM_P1;HPM_P2
2021/06/08 00:01:40;;;;;;;27.85;22.80;;;14.20;99.90;;;;;;5006531;28;20040;-76
2021/06/08 00:04:07;;;;;;;30.05;21.67;;;14.20;99.90;;;;;;5015017;28;20042;-76
2021/06/08 00:06:33;;;;;;;29.95;21.67;;;14.20;99.90;;;;;;5031879;28;20053;-76
2021/06/08 00:09:02;;;;;;;28.52;21.25;;;14.20;99.90;;;;;;5029133;28;20040;-76
2021/06/08 00:11:28;;;;;;;26.83;21.92;;;14.10;99.90;;;;;;5032514;28;20068;-76
2021/06/08 00:13:54;;;;;;;30.75;21.65;;;14.20;99.90;;;;;;5011667;28;20439;-76
2021/06/08 00:16:20;;;;;;;28.17;22.02;;;14.20;99.90;;;;;;5031069;28;20033;-76
2021/06/08 00:18:48;;;;;;;28.17;22.10;;;14.20;99.90;;;;;;5011075;28;20065;-75
2021/06/08 00:21:14;;;;;;;27.60;21.25;;;14.20;99.90;;;;;;5030980;28;20425;-76
2021/06/08 00:23:40;;;;;;;27.80;21.60;;;14.20;99.90;;;;;;5036577;28;20099;-76
2021/06/08 00:26:10;;;;;;;29.65;22.58;;;14.10;99.90;;;;;;5032100;28;20386;-76
2021/06/08 00:28:35;;;;;;;30.23;23.23;;;14.10;99.90;;;;;;5027506;28;20043;-76
2021/06/08 00:31:01;;;;;;;25.92;21.45;;;14.10;99.90;;;;;;5032240;28;20037;-76
2021/06/08 00:33:32;;;;;;;29.27;21.70;;;14.20;99.90;;;;;;5016009;28;20041;-76
2021/06/08 00:36:00;;;;;;;31.92;24.27;;;14.20;99.90;;;;;;5014824;28;20395;-76
2021/06/08 00:38:26;;;;;;;30.45;24.60;;;13.90;99.90;;;;;;4472524;28;15074482;-76
2021/06/08 00:40:53;;;;;;;31.80;25.60;;;14.00;99.90;;;;;;5035890;28;20438;-76
2021/06/08 00:43:26;;;;;;;32.13;26.35;;;13.90;99.90;;;;;;5032660;28;20120;-76
2021/06/08 00:45:53;;;;;;;32.38;26.42;;;13.90;99.90;;;;;;5032782;28;20037;-76
2021/06/08 00:48:20;;;;;;;34.22;27.05;;;14.10;99.90;;;;;;5011649;28;20084;-76
2021/06/08 00:51:03;;;;;;;33.38;26.63;;;13.80;99.90;;;;;;5009795;28;20094;-76
2021/06/08 00:53:30;;;;;;;34.92;26.88;;;13.70;99.90;;;;;;5031140;28;20042;-78
2021/06/08 00:55:57;;;;;;;33.00;26.95;;;13.80;99.90;;;;;;5032673;28;20116;-78
2021/06/08 00:58:23;;;;;;;34.65;27.63;;;13.70;99.90;;;;;;5024895;28;20529;-79
2021/06/08 01:00:50;;;;;;;40.92;30.23;;;13.70;99.90;;;;;;5031232;28;20033;-79
2021/06/08 01:03:16;;;;;;;39.58;30.48;;;13.80;99.90;;;;;;5030049;28;20481;-79
2021/06/08 01:05:41;;;;;;;44.50;32.92;;;13.70;99.90;;;;;;5026451;28;21915;-78
2021/06/08 01:08:07;;;;;;;46.53;32.45;;;13.70;99.90;;;;;;5021370;28;20041;-78
2021/06/08 01:10:34;;;;;;;44.33;31.65;;;13.70;99.90;;;;;;5014941;28;20136;-78
2021/06/08 01:13:00;;;;;;;65.00;41.20;;;13.70;99.90;;;;;;5032644;28;20120;-78
2021/06/08 01:15:25;;;;;;;62.97;42.60;;;13.80;99.90;;;;;;5014704;28;20083;-78
2021/06/08 01:17:51;;;;;;;64.05;44.13;;;13.90;99.90;;;;;;5029608;28;20038;-78
2021/06/08 01:20:18;;;;;;;65.10;43.03;;;13.90;99.90;;;;;;5027516;28;20041;-78
2021/06/08 01:22:45;;;;;;;61.42;42.50;;;13.90;99.90;;;;;;5014641;28;20040;-78
2021/06/08 01:25:11;;;;;;;58.88;40.72;;;13.90;99.90;;;;;;5017386;28;20046;-78
2021/06/08 01:27:38;;;;;;;59.63;40.75;;;14.00;99.90;;;;;;5013879;28;20116;-78
2021/06/08 01:30:25;;;;;;;69.57;44.90;;;14.00;99.90;;;;;;5016100;28;20037;-78
2021/06/08 01:32:52;;;;;;;65.57;43.88;;;14.10;99.90;;;;;;5035601;28;20037;-78
2021/06/08 01:35:20;;;;;;;70.00;46.95;;;14.00;99.90;;;;;;5010601;28;20058;-78
2021/06/08 01:37:46;;;;;;;72.10;46.55;;;14.30;99.90;;;;;;5017747;28;20129;-76
2021/06/08 01:40:16;;;;;;;61.13;41.42;;;14.00;99.90;;;;;;5011416;28;20061;-76
2021/06/08 01:42:43;;;;;;;54.13;38.40;;;14.00;99.90;;;;;;5011167;28;20064;-76
2021/06/08 01:45:13;;;;;;;50.10;36.90;;;14.00;99.90;;;;;;5025429;28;20045;-76
2021/06/08 01:47:39;;;;;;;51.25;36.50;;;14.00;99.90;;;;;;5022891;28;20493;-76
2021/06/08 01:50:05;;;;;;;51.72;36.55;;;13.90;99.90;;;;;;5001563;28;20089;-76
2021/06/08 01:52:44;;;;;;;47.55;34.00;;;13.90;99.90;;;;;;4968403;28;20414;-76
2021/06/08 01:55:20;;;;;;;46.75;33.47;;;13.90;99.90;;;;;;5030895;28;20102;-76
2021/06/08 01:58:00;;;;;;;40.95;28.70;;;14.00;99.90;;;;;;5029785;28;20038;-76
2021/06/08 02:00:52;;;;;;;40.85;28.10;;;13.90;99.90;;;;;;5031738;28;20041;-76
2021/06/08 02:03:30;;;;;;;29.38;24.38;;;13.90;99.90;;;;;;5010799;28;20041;-76
2021/06/08 02:06:23;;;;;;;32.60;25.27;;;13.80;99.90;;;;;;5035813;28;20045;-76
2021/06/08 02:08:58;;;;;;;34.90;26.08;;;13.80;99.90;;;;;;5007745;28;20110;-76
2021/06/08 02:11:44;;;;;;;32.83;25.25;;;13.90;99.90;;;;;;5018091;28;20129;-76
2021/06/08 02:14:21;;;;;;;37.70;27.77;;;13.80;99.90;;;;;;5021026;28;20157;-76
2021/06/08 02:16:52;;;;;;;31.63;24.13;;;13.80;99.90;;;;;;5020272;28;20116;-78
2021/06/08 02:19:21;;;;;;;26.63;21.75;;;13.90;99.90;;;;;;5026700;28;20504;-78
2021/06/08 02:21:54;;;;;;;27.60;20.52;;;13.90;99.90;;;;;;5020160;28;20629;-78
2021/06/08 02:24:24;;;;;;;24.77;19.45;;;13.90;99.90;;;;;;5015926;28;20040;-79
2021/06/08 02:26:54;;;;;;;24.63;19.75;;;13.90;99.90;;;;;;5015727;28;20433;-79
2021/06/08 02:29:21;;;;;;;23.40;18.15;;;13.80;99.90;;;;;;4990904;28;20037;-78
2021/06/08 02:31:50;;;;;;;19.90;16.40;;;13.90;99.90;;;;;;5021545;28;20038;-78
2021/06/08 02:34:20;;;;;;;19.20;16.55;;;13.90;99.90;;;;;;5006311;28;20038;-78
2021/06/08 02:37:10;;;;;;;18.33;15.80;;;13.90;99.90;;;;;;5002489;28;20084;-78
2021/06/08 02:39:40;;;;;;;21.42;16.30;;;13.90;99.90;;;;;;5015690;28;20049;-78
2021/06/08 02:42:08;;;;;;;18.08;15.40;;;13.90;99.90;;;;;;5027980;28;20045;-78
2021/06/08 02:44:35;;;;;;;20.70;16.67;;;13.90;99.90;;;;;;5024418;28;20564;-77
2021/06/08 02:47:09;;;;;;;21.75;16.08;;;13.90;99.90;;;;;;5013046;28;20036;-77
2021/06/08 02:49:35;;;;;;;20.23;16.08;;;13.90;99.90;;;;;;5003816;28;20449;-78
2021/06/08 02:52:02;;;;;;;19.55;15.82;;;14.00;99.90;;;;;;5026943;28;20041;-78
2021/06/08 02:54:29;;;;;;;22.45;16.65;;;14.00;99.90;;;;;;5033326;28;20385;-78
2021/06/08 02:56:56;;;;;;;20.88;16.20;;;13.90;99.90;;;;;;5032493;28;20038;-78
2021/06/08 02:59:27;;;;;;;20.83;15.95;;;14.10;99.90;;;;;;5014530;28;20030;-77
2021/06/08 03:01:57;;;;;;;19.98;15.68;;;14.00;99.90;;;;;;5014958;28;20116;-77
2021/06/08 03:04:27;;;;;;;19.58;15.50;;;14.10;99.90;;;;;;5009352;28;20034;-78
2021/06/08 03:07:00;;;;;;;24.42;16.77;;;14.10;99.90;;;;;;5024444;28;20037;-78
2021/06/08 03:09:38;;;;;;;20.58;15.43;;;14.10;99.90;;;;;;5022928;28;20133;-77
2021/06/08 03:12:16;;;;;;;18.45;15.52;;;14.20;99.90;;;;;;5013650;28;20054;-77
2021/06/08 03:14:45;;;;;;;18.70;16.40;;;14.10;99.90;;;;;;5018798;28;20492;-77
2021/06/08 03:17:15;;;;;;;22.48;17.75;;;14.10;99.90;;;;;;5019732;28;20398;-77
2021/06/08 03:19:47;;;;;;;20.15;15.93;;;14.00;99.90;;;;;;5015776;28;20030;-75
2021/06/08 03:22:19;;;;;;;21.02;15.45;;;13.90;99.90;;;;;;5015387;28;20067;-75
2021/06/08 03:24:51;;;;;;;20.50;15.55;;;13.80;99.90;;;;;;5020269;28;20512;-75
2021/06/08 03:27:20;;;;;;;21.40;16.70;;;13.80;99.90;;;;;;4994951;28;20045;-75
2021/06/08 03:29:47;;;;;;;22.10;16.27;;;13.80;99.90;;;;;;5012774;28;20057;-75
2021/06/08 03:32:16;;;;;;;20.33;17.10;;;13.80;99.90;;;;;;4985350;28;20062;-75
2021/06/08 03:34:43;;;;;;;21.35;16.25;;;13.80;99.90;;;;;;5008631;28;20497;-74
2021/06/08 03:37:12;;;;;;;23.15;17.10;;;14.00;99.90;;;;;;5001813;28;20048;-76
2021/06/08 03:39:38;;;;;;;20.80;16.98;;;13.80;99.90;;;;;;5014135;28;20101;-75
2021/06/08 03:42:05;;;;;;;23.88;17.20;;;13.80;99.90;;;;;;5015071;28;20040;-75
2021/06/08 03:44:34;;;;;;;21.58;17.17;;;13.80;99.90;;;;;;5025583;28;20517;-75
2021/06/08 03:47:00;;;;;;;21.00;17.02;;;13.80;99.90;;;;;;5019979;28;20060;-75
2021/06/08 03:49:32;;;;;;;22.20;16.80;;;13.80;99.90;;;;;;5001461;28;20033;-75
2021/06/08 03:51:58;;;;;;;20.02;15.98;;;13.80;99.90;;;;;;5029875;28;20048;-75
2021/06/08 03:54:25;;;;;;;18.65;15.40;;;13.80;99.90;;;;;;5016099;28;20404;-75
2021/06/08 03:56:53;;;;;;;20.75;15.45;;;13.80;99.90;;;;;;5013852;28;20060;-75
2021/06/08 03:59:22;;;;;;;20.23;15.50;;;13.80;99.90;;;;;;5014351;28;20077;-75
2021/06/08 04:01:49;;;;;;;23.17;14.95;;;13.80;99.90;;;;;;5023713;28;20042;-76
2021/06/08 04:04:17;;;;;;;19.20;14.82;;;13.70;99.90;;;;;;5013797;28;20543;-76
2021/06/08 04:06:45;;;;;;;19.52;15.63;;;13.70;99.90;;;;;;5013947;28;20414;-76
2021/06/08 04:09:11;;;;;;;20.25;14.18;;;13.70;99.90;;;;;;5013505;28;20054;-76
2021/06/08 04:11:38;;;;;;;18.50;13.88;;;13.60;99.90;;;;;;5012811;28;20389;-75
2021/06/08 04:14:05;;;;;;;21.33;14.93;;;13.70;99.90;;;;;;5016138;28;20045;-75
2021/06/08 04:16:35;;;;;;;20.27;16.00;;;13.70;99.90;;;;;;5013634;28;20040;-76
2021/06/08 04:19:01;;;;;;;20.60;15.35;;;13.70;99.90;;;;;;5008149;28;20041;-75
2021/06/08 04:21:28;;;;;;;21.33;16.38;;;13.70;99.90;;;;;;5025916;28;20030;-76
2021/06/08 04:23:59;;;;;;;18.58;15.10;;;13.70;99.90;;;;;;5023325;28;20433;-75
2021/06/08 04:26:26;;;;;;;23.13;16.70;;;13.70;99.90;;;;;;5010249;28;20042;-76
2021/06/08 04:28:52;;;;;;;21.05;15.40;;;13.70;99.90;;;;;;5006433;28;20061;-76
2021/06/08 04:31:29;;;;;;;23.33;16.75;;;13.70;99.90;;;;;;5014505;28;20418;-76
2021/06/08 04:33:55;;;;;;;21.38;15.93;;;13.70;99.90;;;;;;5018285;28;20185;-76
2021/06/08 04:36:24;;;;;;;22.58;16.92;;;13.70;99.90;;;;;;5011885;28;20529;-75
2021/06/08 04:38:51;;;;;;;23.00;16.08;;;13.70;99.90;;;;;;5004394;28;20054;-75
2021/06/08 04:41:18;;;;;;;20.65;17.05;;;13.70;99.90;;;;;;4995638;28;20053;-75
2021/06/08 04:43:44;;;;;;;22.52;17.48;;;13.70;99.90;;;;;;5026854;28;20061;-75
2021/06/08 04:46:12;;;;;;;23.52;17.75;;;13.70;99.90;;;;;;4993110;28;20478;-75
2021/06/08 04:48:43;;;;;;;22.77;18.23;;;13.70;99.90;;;;;;5013720;28;20081;-75
2021/06/08 04:51:29;;;;;;;23.80;17.45;;;13.80;99.90;;;;;;5001157;28;20034;-74
2021/06/08 04:54:05;;;;;;;24.35;18.20;;;13.70;99.90;;;;;;5026685;28;20037;-75
2021/06/08 04:56:32;;;;;;;24.95;18.33;;;13.80;99.90;;;;;;4993295;28;20387;-76
2021/06/08 04:58:58;;;;;;;23.60;18.48;;;13.90;99.90;;;;;;5010772;28;20040;-75
2021/06/08 05:01:37;;;;;;;26.10;19.92;;;13.90;99.90;;;;;;4993356;28;20033;-76
2021/06/08 05:04:09;;;;;;;23.75;19.23;;;13.80;99.90;;;;;;5013291;28;20045;-76
2021/06/08 05:06:45;;;;;;;25.85;19.08;;;14.10;99.90;;;;;;5022110;28;20482;-76
2021/06/08 05:09:20;;;;;;;26.00;19.42;;;13.80;99.90;;;;;;5011206;28;20034;-76
2021/06/08 05:11:58;;;;;;;27.80;21.40;;;13.80;99.90;;;;;;5015016;28;20049;-76
2021/06/08 05:14:27;;;;;;;28.40;20.40;;;13.80;99.90;;;;;;4999374;28;20079;-76
2021/06/08 05:16:55;;;;;;;27.85;21.73;;;13.80;99.90;;;;;;5012781;28;20366;-76
2021/06/08 05:19:23;;;;;;;32.25;22.58;;;13.80;99.90;;;;;;5013475;28;20040;-76
2021/06/08 05:21:59;;;;;;;29.83;23.08;;;13.90;99.90;;;;;;5018021;28;20092;-76
2021/06/08 05:24:29;;;;;;;32.22;23.73;;;13.90;99.90;;;;;;4995526;28;20041;-75
2021/06/08 05:26:56;;;;;;;33.72;24.25;;;14.00;99.90;;;;;;5006750;28;20033;-75
2021/06/08 05:29:24;;;;;;;32.92;23.85;;;13.90;99.90;;;;;;5006829;28;20038;-76
2021/06/08 05:31:54;;;;;;;33.55;24.92;;;13.90;99.90;;;;;;5019377;28;20034;-76
2021/06/08 05:34:22;;;;;;;34.55;26.55;;;13.90;99.90;;;;;;5022960;28;20040;-76
2021/06/08 05:36:48;;;;;;;43.47;30.40;;;14.00;99.90;;;;;;5014341;28;20036;-76
2021/06/08 05:39:15;;;;;;;39.63;29.58;;;13.90;99.90;;;;;;5007659;28;20046;-76
2021/06/08 05:41:41;;;;;;;42.45;31.45;;;14.00;99.90;;;;;;5007089;28;20067;-76
2021/06/08 05:44:12;;;;;;;50.15;34.05;;;14.00;99.90;;;;;;4996719;28;20045;-76
2021/06/08 05:46:38;;;;;;;52.65;36.75;;;14.00;99.90;;;;;;4998824;28;20077;-76
2021/06/08 05:49:08;;;;;;;55.00;37.83;;;14.00;99.90;;;;;;5022036;28;20044;-76
2021/06/08 05:51:54;;;;;;;55.75;37.75;;;14.10;99.90;;;;;;4999053;28;20073;-76
2021/06/08 05:54:21;;;;;;;55.53;37.90;;;14.00;99.90;;;;;;5020408;28;20033;-76
2021/06/08 05:56:51;;;;;;;54.47;37.08;;;14.00;99.90;;;;;;5015059;28;20125;-76
2021/06/08 05:59:31;;;;;;;58.22;38.83;;;14.00;99.90;;;;;;5015712;28;20038;-76
2021/06/08 06:01:57;;;;;;;57.95;39.22;;;14.10;99.90;;;;;;5007314;28;20065;-76
2021/06/08 06:04:25;;;;;;;55.58;37.97;;;14.00;99.90;;;;;;5016358;28;20069;-75
2021/06/08 06:06:55;;;;;;;55.75;38.78;;;14.00;99.90;;;;;;5000169;28;20034;-77
2021/06/08 06:09:23;;;;;;;61.22;38.70;;;14.00;99.90;;;;;;5007649;28;20110;-75
2021/06/08 06:11:53;;;;;;;53.70;37.50;;;13.90;99.90;;;;;;5035612;28;20108;-83
2021/06/08 06:14:21;;;;;;;58.33;38.83;;;14.00;99.90;;;;;;4990497;28;20030;-83
2021/06/08 06:16:53;;;;;;;55.30;37.40;;;14.00;99.90;;;;;;5027717;28;20046;-77
2021/06/08 06:19:26;;;;;;;60.60;40.15;;;14.00;99.90;;;;;;5027730;28;20095;-74
2021/06/08 06:22:07;;;;;;;64.90;39.13;;;14.00;99.90;;;;;;5019646;28;20489;-77
2021/06/08 06:24:33;;;;;;;62.65;41.97;;;14.10;99.90;;;;;;5003284;28;20463;-76
2021/06/08 06:27:07;;;;;;;59.58;40.80;;;14.10;99.90;;;;;;4999863;28;20418;-76
2021/06/08 06:29:34;;;;;;;65.40;42.70;;;14.20;99.90;;;;;;5028162;28;20044;-76
2021/06/08 06:32:10;;;;;;;63.95;44.28;;;14.20;99.90;;;;;;5012470;28;20422;-81
2021/06/08 06:34:45;;;;;;;64.28;41.55;;;14.20;99.90;;;;;;4964264;28;20041;-78
2021/06/08 06:37:13;;;;;;;59.85;40.47;;;14.20;99.90;;;;;;5018705;28;20059;-77
2021/06/08 06:39:42;;;;;;;58.30;39.53;;;14.20;99.90;;;;;;4997021;28;20090;-78
2021/06/08 06:42:12;;;;;;;60.50;40.05;;;14.30;99.90;;;;;;4983055;28;20055;-78
2021/06/08 06:44:40;;;;;;;58.05;37.40;;;14.30;99.90;;;;;;4975917;28;20035;-78
2021/06/08 06:47:07;;;;;;;55.55;36.08;;;14.20;99.90;;;;;;4981343;28;20057;-79
2021/06/08 06:49:35;;;;;;;56.35;36.45;;;14.20;99.90;;;;;;4982853;28;20049;-79
2021/06/08 06:52:17;;;;;;;56.00;36.40;;;14.20;99.90;;;;;;4965466;28;20054;-79
2021/06/08 06:54:45;;;;;;;55.47;34.85;;;14.30;99.90;;;;;;4982265;28;20035;-79
2021/06/08 06:57:11;;;;;;;58.40;37.63;;;14.40;99.90;;;;;;4981743;28;20030;-78
2021/06/08 06:59:39;;;;;;;50.00;34.22;;;14.40;99.90;;;;;;4977398;28;20465;-76
2021/06/08 07:02:12;;;;;;;47.72;32.20;;;14.40;99.90;;;;;;4976878;28;20066;-76
2021/06/08 07:04:40;;;;;;;49.30;32.65;;;14.50;99.90;;;;;;4990785;28;20041;-76
2021/06/08 07:07:10;;;;;;;46.30;32.50;;;14.50;99.90;;;;;;4984790;28;20038;-77
2021/06/08 07:09:39;;;;;;;44.42;30.75;;;14.60;99.90;;;;;;4993545;28;20496;-76
2021/06/08 07:12:06;;;;;;;42.25;30.50;;;14.70;99.90;;;;;;4968268;28;20074;-76
2021/06/08 07:14:32;;;;;;;44.63;30.17;;;14.80;99.90;;;;;;4959747;28;20141;-76
2021/06/08 07:17:00;;;;;;;42.55;29.45;;;14.80;99.90;;;;;;4996444;28;20062;-75
2021/06/08 07:19:27;;;;;;;39.45;29.38;;;14.90;99.90;;;;;;4991533;28;20501;-76
2021/06/08 07:21:53;;;;;;;41.60;29.55;;;14.90;99.90;;;;;;4986926;28;20525;-77
2021/06/08 07:24:41;;;;;;;46.42;30.63;;;14.90;99.90;;;;;;4994046;28;20117;-77
2021/06/08 07:27:20;;;;;;;45.08;31.60;;;15.00;99.90;;;;;;5002612;28;20037;-78
2021/06/08 07:29:48;;;;;;;34.85;25.80;;;15.10;99.90;;;;;;4975152;28;20057;-82
2021/06/08 07:32:39;;;;;;;34.70;25.40;;;15.10;99.90;;;;;;4992059;28;20041;-78
2021/06/08 07:35:21;;;;;;;33.00;25.00;;;15.20;99.90;;;;;;4979656;28;20102;-77
2021/06/08 07:37:54;;;;;;;34.67;25.45;;;15.30;99.90;;;;;;4986636;28;20043;-79
2021/06/08 07:40:53;;;;;;;33.45;24.45;;;15.30;99.90;;;;;;5016964;28;20049;-79
2021/06/08 07:43:22;;;;;;;34.30;25.02;;;15.40;99.90;;;;;;5016611;28;20038;-77
2021/06/08 07:45:51;;;;;;;32.80;23.83;;;15.50;99.90;;;;;;5022730;28;20392;-77
2021/06/08 07:48:41;;;;;;;30.25;23.15;;;15.50;99.90;;;;;;5001572;28;20126;-77
2021/06/08 07:51:09;;;;;;;32.53;24.08;;;15.50;99.90;;;;;;5014016;28;20045;-80
2021/06/08 07:53:35;;;;;;;33.55;23.33;;;15.50;99.90;;;;;;5023902;28;20403;-77
2021/06/08 07:56:02;;;;;;;31.23;23.65;;;15.50;99.90;;;;;;5014474;28;20048;-77
2021/06/08 07:58:33;;;;;;;30.38;23.20;;;15.60;99.90;;;;;;4989385;28;20044;-80
2021/06/08 08:00:59;;;;;;;33.10;24.50;;;15.60;99.90;;;;;;5009475;28;20080;-80
2021/06/08 08:03:39;;;;;;;35.20;25.40;;;15.70;99.90;;;;;;4992312;28;20042;-80
2021/06/08 08:06:10;;;;;;;33.20;24.30;;;15.70;99.90;;;;;;5013227;28;20052;-79
2021/06/08 08:08:54;;;;;;;31.92;24.05;;;15.70;99.90;;;;;;5021227;28;20418;-80
2021/06/08 08:11:32;;;;;;;32.22;23.52;;;15.80;99.90;;;;;;5004606;28;20070;-80
2021/06/08 08:14:12;;;;;;;38.65;23.90;;;15.70;99.90;;;;;;5001040;28;20504;-77
2021/06/08 08:17:00;;;;;;;36.38;26.75;;;15.70;99.90;;;;;;4974705;28;20054;-77
2021/06/08 08:19:47;;;;;;;38.88;27.27;;;15.90;99.90;;;;;;4985869;28;20049;-77
2021/06/08 08:22:33;;;;;;;42.22;28.65;;;16.10;99.90;;;;;;5003962;28;20161;-78
2021/06/08 08:25:22;;;;;;;42.83;29.13;;;16.20;99.90;;;;;;4995253;28;20046;-77
2021/06/08 08:28:12;;;;;;;45.92;30.17;;;16.30;99.90;;;;;;4974145;28;20041;-78
2021/06/08 08:30:44;;;;;;;43.55;31.27;;;16.40;99.90;;;;;;5008287;28;20033;-84
2021/06/08 08:33:24;;;;;;;45.78;31.50;;;16.60;99.90;;;;;;5009674;28;20045;-79
2021/06/08 08:35:59;;;;;;;51.53;31.55;;;16.60;99.90;;;;;;4987837;28;20477;-78
2021/06/08 08:38:30;;;;;;;51.10;31.92;;;16.70;99.90;;;;;;4995751;28;21457;-82
2021/06/08 08:41:00;;;;;;;45.65;30.85;;;16.80;99.90;;;;;;4957626;28;20142;-82
2021/06/08 08:43:49;;;;;;;47.50;30.48;;;16.90;99.90;;;;;;4967365;28;20446;-81
2021/06/08 08:46:17;;;;;;;47.30;30.17;;;16.90;99.90;;;;;;4963484;28;20133;-81
2021/06/08 08:48:58;;;;;;;43.83;30.77;;;17.00;99.90;;;;;;4982362;28;20042;-81
2021/06/08 08:51:37;;;;;;;51.75;33.10;;;17.00;99.90;;;;;;4966273;28;20057;-81
2021/06/08 08:54:20;;;;;;;57.45;33.85;;;17.00;99.90;;;;;;4968888;28;20517;-80
2021/06/08 08:56:52;;;;;;;50.85;32.60;;;17.10;99.90;;;;;;4965251;28;20097;-80
2021/06/08 08:59:22;;;;;;;52.00;32.75;;;17.10;99.90;;;;;;4990717;28;20386;-82
2021/06/08 09:02:08;;;;;;;53.97;32.22;;;17.10;99.90;;;;;;4985269;28;20602;-80
2021/06/08 09:04:36;;;;;;;47.53;32.35;;;17.10;99.90;;;;;;4989725;28;20166;-80
2021/06/08 09:07:14;;;;;;;50.67;32.33;;;17.10;99.90;;;;;;4986889;28;20026;-80
2021/06/08 09:09:43;;;;;;;47.78;30.00;;;17.10;99.90;;;;;;4997197;28;20172;-81
2021/06/08 09:12:16;;;;;;;46.95;29.80;;;17.10;99.90;;;;;;4999172;28;20275;-81
2021/06/08 09:14:46;;;;;;;53.80;30.45;;;17.20;99.90;;;;;;4973458;28;20074;-81
2021/06/08 09:17:17;;;;;;;42.55;28.77;;;17.20;99.90;;;;;;4986236;28;20037;-80
2021/06/08 09:19:48;;;;;;;44.70;27.88;;;17.30;99.90;;;;;;4997380;28;20125;-81
2021/06/08 09:22:15;;;;;;;50.90;30.02;;;17.40;99.90;;;;;;5011183;28;20128;-82
2021/06/08 09:24:44;;;;;;;42.80;28.52;;;17.40;99.90;;;;;;4994126;28;20446;-81
2021/06/08 09:27:43;;;;;;;49.92;32.05;;;17.40;99.90;;;;;;4990658;28;20089;-77
2021/06/08 09:30:15;;;;;;;44.08;27.15;;;17.50;99.90;;;;;;4983242;28;20043;-82
2021/06/08 09:32:42;;;;;;;48.80;28.65;;;17.60;99.90;;;;;;4992463;28;20042;-77
2021/06/08 09:35:09;;;;;;;48.10;29.27;;;17.60;99.90;;;;;;4991183;28;20482;-77
2021/06/08 09:38:07;;;;;;;41.03;26.40;;;17.70;99.90;;;;;;4992731;28;20042;-77
2021/06/08 09:40:42;;;;;;;42.50;26.45;;;17.70;99.90;;;;;;5005655;28;20058;-77
2021/06/08 09:43:31;;;;;;;40.40;26.38;;;17.80;99.90;;;;;;5005893;28;20042;-76
2021/06/08 09:46:30;;;;;;;37.40;25.70;;;17.90;99.90;;;;;;5007662;28;20030;-75
2021/06/08 09:49:18;;;;;;;36.60;24.08;;;18.10;99.90;;;;;;5007133;28;20492;-75
2021/06/08 09:52:18;;;;;;;35.88;24.50;;;18.00;99.90;;;;;;4994686;28;20033;-77
2021/06/08 09:54:52;;;;;;;33.78;23.05;;;18.10;99.90;;;;;;4953535;28;20076;-77
2021/06/08 09:57:29;;;;;;;36.80;23.92;;;18.20;99.90;;;;;;4993182;28;20042;-80
2021/06/08 10:00:01;;;;;;;34.17;21.95;;;18.30;99.90;;;;;;4978551;28;20050;-78
2021/06/08 10:02:48;;;;;;;31.90;23.00;;;18.30;99.90;;;;;;5010004;28;20069;-78
2021/06/08 10:05:24;;;;;;;32.70;22.55;;;18.30;99.90;;;;;;5017296;28;20397;-77
2021/06/08 10:08:07;;;;;;;30.95;19.58;;;18.40;99.90;;;;;;4997837;28;20033;-77
2021/06/08 10:10:40;;;;;;;30.60;20.63;;;18.50;99.90;;;;;;5010356;28;20648;-79
2021/06/08 10:13:09;;;;;;;36.60;23.20;;;18.50;99.90;;;;;;5006092;28;20336;-78
2021/06/08 10:16:01;;;;;;;30.15;19.23;;;18.50;99.90;;;;;;5010420;28;20037;-79
2021/06/08 10:18:48;;;;;;;32.20;21.75;;;18.50;99.90;;;;;;5008139;28;20038;-78
2021/06/08 10:25:44;;;;;;;33.80;20.33;;;18.60;99.90;;;;;;4884283;29;20064;-82
2021/06/08 10:29:25;;;;;;;31.35;19.77;;;18.80;99.90;;;;;;4847661;29;20049;-82
2021/06/08 10:32:06;;;;;;;33.08;20.83;;;18.90;99.90;;;;;;4860189;29;20057;-82
2021/06/08 10:35:35;;;;;;;;;;;;;;;;;;;;;
2021/06/08 10:38:48;;;;;;;28.37;18.17;;;19.00;99.90;;;;;;4823530;29;20130;-82
2021/06/08 10:46:20;;;;;;;;;;;;;;;;;;;;;
2021/06/08 11:16:21;;;;;;;24.90;17.10;;;19.80;99.90;;;;;;4945391;29;20120;-80
2021/06/08 11:42:40;;;;;;;;;;;;;;;;;;;;;
2021/06/08 11:45:27;;;;;;;;;;;20.00;99.90;;;;;;4786631;29;20059;-81
2021/06/08 11:52:39;;;;;;;19.48;12.90;;;20.30;99.90;;;;;;4816808;29;20431;-81
2021/06/08 11:59:58;;;;;;;14.80;9.95;;;20.50;99.90;;;;;;4812262;29;20092;-80
2021/06/08 12:02:36;;;;;;;13.80;10.02;;;20.50;99.10;;;;;;4844285;29;20057;-81
2021/06/08 12:06:03;;;;;;;12.75;9.70;;;20.50;99.30;;;;;;4932217;29;20047;-82
2021/06/08 12:09:49;;;;;;;16.85;10.23;;;20.60;98.80;;;;;;4918162;29;20051;-82
2021/06/08 12:20:46;;;;;;;13.52;9.27;;;20.80;97.60;;;;;;4872263;29;20087;-82
2021/06/08 12:27:57;;;;;;;13.27;9.20;;;21.00;98.30;;;;;;4864377;29;20061;-80
2021/06/08 12:37:57;;;;;;;11.27;8.02;;;21.10;96.50;;;;;;4839444;29;20068;-80
2021/06/08 12:40:23;;;;;;;14.20;8.63;;;21.00;96.60;;;;;;4835593;29;20118;-81
2021/06/08 12:53:38;;;;;;;14.65;8.73;;;21.10;97.10;;;;;;4738380;30;20093;-82
2021/06/08 12:57:12;;;;;;;11.25;7.90;;;21.20;97.60;;;;;;4726792;30;20134;-82
2021/06/08 13:06:59;;;;;;;8.98;6.78;;;21.40;97.20;;;;;;4763869;30;20064;-81
2021/06/08 13:10:07;;;;;;;;;;;;;;;;;;;;;
2021/06/08 13:12:54;;;;;;;10.30;7.18;;;21.60;96.10;;;;;;4778971;29;20066;-87
2021/06/08 13:15:42;;;;;;;7.88;6.85;;;21.60;96.40;;;;;;4867496;29;20053;-75
2021/06/08 13:18:12;;;;;;;8.18;6.40;;;21.70;95.70;;;;;;5024447;28;20083;-75
2021/06/08 13:20:43;;;;;;;10.23;8.35;;;21.70;96.40;;;;;;5025662;28;20076;-75
2021/06/08 13:23:23;;;;;;;14.02;9.90;;;21.90;97.00;;;;;;5024308;28;20041;-75
2021/06/08 13:26:04;;;;;;;10.93;8.05;;;22.00;96.80;;;;;;5025326;28;20041;-75
2021/06/08 13:28:38;;;;;;;15.25;12.68;;;22.20;96.80;;;;;;5023401;28;20033;-75
2021/06/08 13:31:16;;;;;;;17.42;14.45;;;22.20;97.40;;;;;;5033372;28;20042;-75
2021/06/08 13:33:44;;;;;;;18.45;14.50;;;22.30;98.10;;;;;;5021640;28;20390;-75
2021/06/08 13:36:25;;;;;;;18.65;14.57;;;22.30;98.20;;;;;;5024658;28;20504;-75
2021/06/08 13:38:54;;;;;;;20.20;14.38;;;22.40;98.30;;;;;;5022928;28;20485;-76
2021/06/08 13:41:33;;;;;;;17.95;13.45;;;22.40;98.40;;;;;;5007491;28;20068;-76
2021/06/08 13:44:17;;;;;;;16.52;13.73;;;22.40;98.50;;;;;;5031383;28;20042;-75
2021/06/08 13:46:55;;;;;;;17.63;14.18;;;22.20;97.90;;;;;;5027231;28;20408;-75
2021/06/08 13:49:37;;;;;;;18.05;14.38;;;22.20;97.90;;;;;;5027939;28;20040;-75
2021/06/08 13:52:02;;;;;;;15.35;13.20;;;22.10;98.20;;;;;;5030723;28;20049;-75
2021/06/08 13:54:33;;;;;;;16.65;13.50;;;22.10;98.30;;;;;;5013962;28;20458;-75
2021/06/08 13:57:19;;;;;;;19.27;13.48;;;22.00;98.10;;;;;;5029369;28;20116;-75
2021/06/08 14:02:41;;;;;;;15.05;12.00;;;22.00;98.20;;;;;;5030588;28;20081;-75
2021/06/08 14:05:08;;;;;;;15.18;12.07;;;22.00;97.50;;;;;;5035400;28;20516;-75
2021/06/08 14:07:34;;;;;;;14.02;11.85;;;22.00;97.90;;;;;;5035106;28;21685;-75
2021/06/08 14:10:06;;;;;;;14.80;11.23;;;22.00;97.80;;;;;;5036135;28;20053;-75
2021/06/08 14:12:32;;;;;;;13.00;10.82;;;22.10;97.80;;;;;;5035109;28;20056;-75
2021/06/08 14:15:06;;;;;;;11.55;10.30;;;22.20;97.70;;;;;;5035396;28;20033;-75
2021/06/08 14:17:32;;;;;;;13.25;10.77;;;22.20;97.30;;;;;;5034915;28;20049;-75
2021/06/08 14:19:57;;;;;;;12.45;10.38;;;22.20;96.90;;;;;;5034402;28;20125;-75
2021/06/08 14:22:23;;;;;;;11.80;8.90;;;22.30;96.60;;;;;;5017576;28;20504;-75
2021/06/08 14:24:49;;;;;;;9.85;7.78;;;22.30;96.50;;;;;;5034921;28;20038;-75
2021/06/08 14:27:18;;;;;;;10.27;8.35;;;22.40;96.40;;;;;;5017341;28;20131;-75
2021/06/08 14:29:44;;;;;;;11.55;8.90;;;22.50;96.10;;;;;;5031105;28;20037;-75
2021/06/08 14:32:10;;;;;;;9.50;7.45;;;22.60;95.90;;;;;;5022065;28;20039;-75
2021/06/08 14:34:36;;;;;;;9.95;7.35;;;22.60;95.50;;;;;;5027316;28;20477;-75
2021/06/08 14:37:05;;;;;;;9.90;8.15;;;22.60;95.10;;;;;;5027478;28;20041;-75
2021/06/08 14:39:31;;;;;;;8.93;6.63;;;22.60;94.50;;;;;;5022339;28;20057;-75
2021/06/08 14:41:58;;;;;;;7.50;5.80;;;22.60;94.10;;;;;;5035027;28;20034;-75
2021/06/08 14:44:23;;;;;;;10.43;6.10;;;22.60;93.80;;;;;;5030804;28;20042;-76
2021/06/08 14:46:49;;;;;;;9.52;5.47;;;22.60;93.60;;;;;;5022415;28;20056;-76
2021/06/08 14:49:15;;;;;;;7.15;4.95;;;22.70;92.90;;;;;;5012973;28;20489;-75
2021/06/08 14:51:41;;;;;;;12.02;4.50;;;22.80;92.90;;;;;;5016796;28;20063;-81
2021/06/08 14:54:15;;;;;;;5.13;4.20;;;23.00;92.40;;;;;;5019242;28;20123;-81
2021/06/08 14:56:43;;;;;;;6.78;5.65;;;23.40;90.30;;;;;;5008878;28;20037;-81